sensor_id;sensor_type;location;lat;lon;timestamp;P1;durP1;ratioP1;P2;durP2;ratioP2
20589;SDS011;10453;50.810;12.540;2022-12-19T00:00:29;56.33;;;31.00;;
20589;SDS011;10453;50.810;12.540;2022-12-19T00:04:46;57.78;;;31.13;;
20589;SDS011;10453;50.810;12.540;2022-12-19T00:09:04;49.77;;;28.83;;
20589;SDS011;10453;50.810;12.540;2022-12-19T00:13:21;47.35;;;26.15;;
20589;SDS011;10453;50.810;12.540;2022-12-19T00:17:39;48.47;;;25.27;;
20589;SDS011;10453;50.810;12.540;2022-12-19T00:21:56;47.27;;;24.50;;
20589;SDS011;10453;50.810;12.540;2022-12-19T00:30:35;43.38;;;24.55;;
20589;SDS011;10453;50.810;12.540;2022-12-19T00:34:52;44.60;;;23.52;;
20589;SDS011;10453;50.810;12.540;2022-12-19T00:39:09;45.03;;;23.93;;
20589;SDS011;10453;50.810;12.540;2022-12-19T00:43:27;37.28;;;19.73;;
20589;SDS011;10453;50.810;12.540;2022-12-19T00:47:44;38.13;;;21.20;;
20589;SDS011;10453;50.810;12.540;2022-12-19T00:52:01;40.10;;;20.73;;
20589;SDS011;10453;50.810;12.540;2022-12-19T00:56:20;39.60;;;20.60;;
20589;SDS011;10453;50.810;12.540;2022-12-19T01:00:38;32.63;;;17.25;;
20589;SDS011;10453;50.810;12.540;2022-12-19T01:04:57;31.88;;;17.15;;
20589;SDS011;10453;50.810;12.540;2022-12-19T01:09:15;33.63;;;19.03;;
20589;SDS011;10453;50.810;12.540;2022-12-19T01:13:33;36.92;;;21.88;;
20589;SDS011;10453;50.810;12.540;2022-12-19T01:17:54;42.28;;;20.80;;
20589;SDS011;10453;50.810;12.540;2022-12-19T01:22:11;44.10;;;23.37;;
20589;SDS011;10453;50.810;12.540;2022-12-19T01:26:29;47.70;;;23.77;;
20589;SDS011;10453;50.810;12.540;2022-12-19T01:30:46;44.73;;;25.00;;
20589;SDS011;10453;50.810;12.540;2022-12-19T01:39:25;48.95;;;26.30;;
20589;SDS011;10453;50.810;12.540;2022-12-19T01:43:53;49.83;;;28.08;;
20589;SDS011;10453;50.810;12.540;2022-12-19T01:48:32;57.22;;;31.42;;
20589;SDS011;10453;50.810;12.540;2022-12-19T01:52:52;51.03;;;27.95;;
20589;SDS011;10453;50.810;12.540;2022-12-19T01:57:11;57.13;;;29.67;;
20589;SDS011;10453;50.810;12.540;2022-12-19T02:01:31;52.58;;;30.02;;
20589;SDS011;10453;50.810;12.540;2022-12-19T02:05:48;50.55;;;28.10;;
20589;SDS011;10453;50.810;12.540;2022-12-19T02:10:06;51.13;;;30.48;;
20589;SDS011;10453;50.810;12.540;2022-12-19T02:14:24;52.40;;;28.48;;
20589;SDS011;10453;50.810;12.540;2022-12-19T02:18:45;44.50;;;24.33;;
20589;SDS011;10453;50.810;12.540;2022-12-19T02:23:27;43.65;;;24.20;;
20589;SDS011;10453;50.810;12.540;2022-12-19T02:32:26;45.03;;;25.57;;
20589;SDS011;10453;50.810;12.540;2022-12-19T02:37:16;42.63;;;22.50;;
20589;SDS011;10453;50.810;12.540;2022-12-19T02:41:44;47.33;;;24.27;;
20589;SDS011;10453;50.810;12.540;2022-12-19T02:46:05;40.90;;;21.02;;
20589;SDS011;10453;50.810;12.540;2022-12-19T02:50:24;35.05;;;18.05;;
20589;SDS011;10453;50.810;12.540;2022-12-19T02:54:42;43.40;;;22.90;;
20589;SDS011;10453;50.810;12.540;2022-12-19T03:03:44;37.45;;;19.60;;
20589;SDS011;10453;50.810;12.540;2022-12-19T03:08:22;37.40;;;20.00;;
20589;SDS011;10453;50.810;12.540;2022-12-19T03:12:55;39.75;;;20.98;;
20589;SDS011;10453;50.810;12.540;2022-12-19T03:17:16;36.80;;;18.00;;
20589;SDS011;10453;50.810;12.540;2022-12-19T03:21:36;30.92;;;17.08;;
20589;SDS011;10453;50.810;12.540;2022-12-19T03:25:59;32.45;;;16.83;;
20589;SDS011;10453;50.810;12.540;2022-12-19T03:30:20;34.28;;;16.48;;
20589;SDS011;10453;50.810;12.540;2022-12-19T03:34:42;35.05;;;16.05;;
20589;SDS011;10453;50.810;12.540;2022-12-19T03:39:04;35.50;;;17.73;;
20589;SDS011;10453;50.810;12.540;2022-12-19T03:43:24;35.28;;;17.08;;
20589;SDS011;10453;50.810;12.540;2022-12-19T03:47:46;31.13;;;15.98;;
20589;SDS011;10453;50.810;12.540;2022-12-19T04:00:56;31.40;;;14.73;;
20589;SDS011;10453;50.810;12.540;2022-12-19T04:05:17;32.17;;;14.88;;
20589;SDS011;10453;50.810;12.540;2022-12-19T04:09:40;31.73;;;15.43;;
20589;SDS011;10453;50.810;12.540;2022-12-19T04:14:03;30.40;;;14.32;;
20589;SDS011;10453;50.810;12.540;2022-12-19T04:18:24;32.78;;;15.02;;
20589;SDS011;10453;50.810;12.540;2022-12-19T04:22:49;28.02;;;13.73;;
20589;SDS011;10453;50.810;12.540;2022-12-19T04:27:15;29.10;;;13.25;;
20589;SDS011;10453;50.810;12.540;2022-12-19T04:31:33;35.50;;;16.35;;
20589;SDS011;10453;50.810;12.540;2022-12-19T04:35:52;34.33;;;14.73;;
20589;SDS011;10453;50.810;12.540;2022-12-19T04:40:10;37.70;;;17.38;;
20589;SDS011;10453;50.810;12.540;2022-12-19T04:44:27;42.75;;;18.58;;
20589;SDS011;10453;50.810;12.540;2022-12-19T04:48:45;38.03;;;17.30;;
20589;SDS011;10453;50.810;12.540;2022-12-19T04:53:02;26.93;;;13.60;;
20589;SDS011;10453;50.810;12.540;2022-12-19T04:57:19;29.43;;;13.87;;
20589;SDS011;10453;50.810;12.540;2022-12-19T05:01:36;29.63;;;13.83;;
20589;SDS011;10453;50.810;12.540;2022-12-19T05:06:06;32.27;;;15.07;;
20589;SDS011;10453;50.810;12.540;2022-12-19T05:10:30;29.77;;;13.90;;
20589;SDS011;10453;50.810;12.540;2022-12-19T05:14:47;47.95;;;20.95;;
20589;SDS011;10453;50.810;12.540;2022-12-19T05:19:05;54.70;;;25.08;;
20589;SDS011;10453;50.810;12.540;2022-12-19T05:23:22;46.43;;;21.60;;
20589;SDS011;10453;50.810;12.540;2022-12-19T05:27:40;39.35;;;19.10;;
20589;SDS011;10453;50.810;12.540;2022-12-19T05:31:57;42.90;;;21.23;;
20589;SDS011;10453;50.810;12.540;2022-12-19T05:36:15;34.77;;;16.40;;
20589;SDS011;10453;50.810;12.540;2022-12-19T05:40:33;30.98;;;15.27;;
20589;SDS011;10453;50.810;12.540;2022-12-19T05:44:51;26.58;;;13.10;;
20589;SDS011;10453;50.810;12.540;2022-12-19T05:49:08;29.48;;;13.60;;
20589;SDS011;10453;50.810;12.540;2022-12-19T05:53:25;29.77;;;14.73;;
20589;SDS011;10453;50.810;12.540;2022-12-19T05:57:45;27.83;;;13.25;;
20589;SDS011;10453;50.810;12.540;2022-12-19T06:02:03;30.27;;;14.43;;
20589;SDS011;10453;50.810;12.540;2022-12-19T06:06:22;45.53;;;19.33;;
20589;SDS011;10453;50.810;12.540;2022-12-19T06:10:41;79.53;;;31.88;;
20589;SDS011;10453;50.810;12.540;2022-12-19T06:14:58;62.45;;;25.55;;
20589;SDS011;10453;50.810;12.540;2022-12-19T06:19:16;32.38;;;14.73;;
20589;SDS011;10453;50.810;12.540;2022-12-19T06:23:33;27.52;;;13.80;;
20589;SDS011;10453;50.810;12.540;2022-12-19T06:27:53;29.00;;;14.20;;
20589;SDS011;10453;50.810;12.540;2022-12-19T06:32:10;28.25;;;13.20;;
20589;SDS011;10453;50.810;12.540;2022-12-19T06:36:28;26.52;;;13.88;;
20589;SDS011;10453;50.810;12.540;2022-12-19T06:40:46;29.42;;;13.93;;
20589;SDS011;10453;50.810;12.540;2022-12-19T06:45:22;35.55;;;17.70;;
20589;SDS011;10453;50.810;12.540;2022-12-19T06:49:39;23.30;;;10.77;;
20589;SDS011;10453;50.810;12.540;2022-12-19T06:53:56;22.60;;;10.80;;
20589;SDS011;10453;50.810;12.540;2022-12-19T06:58:14;22.07;;;11.77;;
20589;SDS011;10453;50.810;12.540;2022-12-19T07:02:37;17.60;;;9.35;;
20589;SDS011;10453;50.810;12.540;2022-12-19T07:06:54;27.23;;;12.43;;
20589;SDS011;10453;50.810;12.540;2022-12-19T07:11:13;22.48;;;12.00;;
20589;SDS011;10453;50.810;12.540;2022-12-19T07:15:30;21.77;;;10.77;;
20589;SDS011;10453;50.810;12.540;2022-12-19T07:19:51;19.30;;;10.15;;
20589;SDS011;10453;50.810;12.540;2022-12-19T07:24:11;18.80;;;10.48;;
20589;SDS011;10453;50.810;12.540;2022-12-19T07:28:31;22.05;;;10.18;;
20589;SDS011;10453;50.810;12.540;2022-12-19T07:32:49;18.67;;;10.15;;
20589;SDS011;10453;50.810;12.540;2022-12-19T07:37:06;20.65;;;10.95;;
20589;SDS011;10453;50.810;12.540;2022-12-19T07:41:24;20.02;;;10.68;;
20589;SDS011;10453;50.810;12.540;2022-12-19T07:45:41;21.35;;;11.15;;
20589;SDS011;10453;50.810;12.540;2022-12-19T07:49:58;28.10;;;15.52;;
20589;SDS011;10453;50.810;12.540;2022-12-19T07:54:15;32.67;;;16.58;;
20589;SDS011;10453;50.810;12.540;2022-12-19T07:58:32;47.10;;;21.73;;
20589;SDS011;10453;50.810;12.540;2022-12-19T08:02:49;58.60;;;24.40;;
20589;SDS011;10453;50.810;12.540;2022-12-19T08:07:07;27.17;;;13.50;;
20589;SDS011;10453;50.810;12.540;2022-12-19T08:11:24;22.00;;;11.38;;
20589;SDS011;10453;50.810;12.540;2022-12-19T08:15:43;21.67;;;11.68;;
20589;SDS011;10453;50.810;12.540;2022-12-19T08:20:00;18.65;;;11.02;;
20589;SDS011;10453;50.810;12.540;2022-12-19T08:24:17;20.00;;;11.35;;
20589;SDS011;10453;50.810;12.540;2022-12-19T08:28:35;17.98;;;9.65;;
20589;SDS011;10453;50.810;12.540;2022-12-19T08:32:52;21.45;;;10.75;;
20589;SDS011;10453;50.810;12.540;2022-12-19T08:37:09;20.75;;;11.77;;
20589;SDS011;10453;50.810;12.540;2022-12-19T08:41:26;28.50;;;15.27;;
20589;SDS011;10453;50.810;12.540;2022-12-19T08:45:44;28.73;;;14.90;;
20589;SDS011;10453;50.810;12.540;2022-12-19T08:50:04;18.52;;;10.25;;
20589;SDS011;10453;50.810;12.540;2022-12-19T08:54:22;19.95;;;11.50;;
20589;SDS011;10453;50.810;12.540;2022-12-19T08:58:39;18.35;;;10.90;;
20589;SDS011;10453;50.810;12.540;2022-12-19T09:02:57;23.23;;;11.38;;
20589;SDS011;10453;50.810;12.540;2022-12-19T09:07:14;20.73;;;12.15;;
20589;SDS011;10453;50.810;12.540;2022-12-19T09:11:32;69.37;;;31.47;;
20589;SDS011;10453;50.810;12.540;2022-12-19T09:16:07;37.05;;;18.85;;
20589;SDS011;10453;50.810;12.540;2022-12-19T09:20:35;24.52;;;13.18;;
20589;SDS011;10453;50.810;12.540;2022-12-19T09:24:52;25.25;;;14.05;;
20589;SDS011;10453;50.810;12.540;2022-12-19T09:29:09;28.88;;;13.55;;
20589;SDS011;10453;50.810;12.540;2022-12-19T09:33:37;23.38;;;12.00;;
20589;SDS011;10453;50.810;12.540;2022-12-19T09:37:59;32.05;;;17.48;;
20589;SDS011;10453;50.810;12.540;2022-12-19T09:42:20;35.20;;;17.55;;
20589;SDS011;10453;50.810;12.540;2022-12-19T09:47:00;35.42;;;17.58;;
20589;SDS011;10453;50.810;12.540;2022-12-19T09:51:28;52.83;;;25.92;;
20589;SDS011;10453;50.810;12.540;2022-12-19T09:55:51;66.40;;;31.48;;
20589;SDS011;10453;50.810;12.540;2022-12-19T10:00:13;60.50;;;31.50;;
20589;SDS011;10453;50.810;12.540;2022-12-19T10:04:34;58.88;;;28.45;;
20589;SDS011;10453;50.810;12.540;2022-12-19T10:08:52;36.33;;;18.75;;
20589;SDS011;10453;50.810;12.540;2022-12-19T10:18:02;44.67;;;22.65;;
20589;SDS011;10453;50.810;12.540;2022-12-19T10:26:50;27.25;;;13.88;;
20589;SDS011;10453;50.810;12.540;2022-12-19T10:35:41;29.42;;;15.75;;
20589;SDS011;10453;50.810;12.540;2022-12-19T10:44:25;31.98;;;16.52;;
20589;SDS011;10453;50.810;12.540;2022-12-19T10:48:46;49.28;;;22.38;;
20589;SDS011;10453;50.810;12.540;2022-12-19T10:53:07;37.67;;;17.88;;
20589;SDS011;10453;50.810;12.540;2022-12-19T10:57:27;44.15;;;21.08;;
20589;SDS011;10453;50.810;12.540;2022-12-19T11:01:45;31.58;;;17.42;;
20589;SDS011;10453;50.810;12.540;2022-12-19T11:10:53;39.10;;;19.38;;
20589;SDS011;10453;50.810;12.540;2022-12-19T11:15:32;60.20;;;31.08;;
20589;SDS011;10453;50.810;12.540;2022-12-19T11:20:16;77.47;;;36.95;;
20589;SDS011;10453;50.810;12.540;2022-12-19T11:24:54;41.88;;;18.98;;
20589;SDS011;10453;50.810;12.540;2022-12-19T11:29:44;36.80;;;17.90;;
20589;SDS011;10453;50.810;12.540;2022-12-19T11:34:23;42.25;;;18.05;;
20589;SDS011;10453;50.810;12.540;2022-12-19T11:38:45;34.38;;;16.02;;
20589;SDS011;10453;50.810;12.540;2022-12-19T11:48:04;34.72;;;16.73;;
20589;SDS011;10453;50.810;12.540;2022-12-19T11:52:46;43.45;;;17.52;;
20589;SDS011;10453;50.810;12.540;2022-12-19T11:57:21;42.75;;;19.75;;
20589;SDS011;10453;50.810;12.540;2022-12-19T12:01:50;60.08;;;26.65;;
20589;SDS011;10453;50.810;12.540;2022-12-19T12:06:31;41.17;;;21.13;;
20589;SDS011;10453;50.810;12.540;2022-12-19T12:11:00;42.17;;;17.80;;
20589;SDS011;10453;50.810;12.540;2022-12-19T12:15:59;35.53;;;17.77;;
20589;SDS011;10453;50.810;12.540;2022-12-19T12:21:33;37.65;;;17.20;;
20589;SDS011;10453;50.810;12.540;2022-12-19T12:25:56;34.92;;;17.23;;
20589;SDS011;10453;50.810;12.540;2022-12-19T12:31:18;25.02;;;12.38;;
20589;SDS011;10453;50.810;12.540;2022-12-19T12:35:48;34.97;;;16.00;;
20589;SDS011;10453;50.810;12.540;2022-12-19T12:45:21;23.73;;;12.88;;
20589;SDS011;10453;50.810;12.540;2022-12-19T12:49:54;33.13;;;16.13;;
20589;SDS011;10453;50.810;12.540;2022-12-19T12:54:16;34.47;;;15.10;;
20589;SDS011;10453;50.810;12.540;2022-12-19T13:03:10;39.20;;;18.85;;
20589;SDS011;10453;50.810;12.540;2022-12-19T13:07:33;53.85;;;22.88;;
20589;SDS011;10453;50.810;12.540;2022-12-19T13:12:24;44.10;;;20.58;;
20589;SDS011;10453;50.810;12.540;2022-12-19T13:17:08;92.50;;;33.05;;
20589;SDS011;10453;50.810;12.540;2022-12-19T13:21:27;73.38;;;27.30;;
20589;SDS011;10453;50.810;12.540;2022-12-19T13:26:21;55.03;;;23.17;;
20589;SDS011;10453;50.810;12.540;2022-12-19T13:35:37;27.33;;;13.35;;
20589;SDS011;10453;50.810;12.540;2022-12-19T13:40:25;28.83;;;15.07;;
20589;SDS011;10453;50.810;12.540;2022-12-19T13:44:48;32.90;;;16.27;;
20589;SDS011;10453;50.810;12.540;2022-12-19T13:49:18;38.20;;;18.52;;
20589;SDS011;10453;50.810;12.540;2022-12-19T13:53:40;35.28;;;19.35;;
20589;SDS011;10453;50.810;12.540;2022-12-19T13:58:02;61.78;;;30.83;;
20589;SDS011;10453;50.810;12.540;2022-12-19T14:02:24;32.80;;;16.75;;
20589;SDS011;10453;50.810;12.540;2022-12-19T14:06:46;26.73;;;14.30;;
20589;SDS011;10453;50.810;12.540;2022-12-19T14:11:06;36.95;;;18.95;;
20589;SDS011;10453;50.810;12.540;2022-12-19T14:15:45;42.83;;;20.95;;
20589;SDS011;10453;50.810;12.540;2022-12-19T14:20:14;44.38;;;21.27;;
20589;SDS011;10453;50.810;12.540;2022-12-19T14:24:56;34.30;;;16.77;;
20589;SDS011;10453;50.810;12.540;2022-12-19T14:29:35;41.38;;;18.98;;
20589;SDS011;10453;50.810;12.540;2022-12-19T14:34:22;62.22;;;24.00;;
20589;SDS011;10453;50.810;12.540;2022-12-19T14:39:03;55.33;;;22.20;;
20589;SDS011;10453;50.810;12.540;2022-12-19T14:43:40;96.18;;;34.13;;
20589;SDS011;10453;50.810;12.540;2022-12-19T14:53:18;67.33;;;26.90;;
20589;SDS011;10453;50.810;12.540;2022-12-19T14:57:57;39.53;;;18.17;;
20589;SDS011;10453;50.810;12.540;2022-12-19T15:02:41;50.63;;;21.65;;
20589;SDS011;10453;50.810;12.540;2022-12-19T15:07:00;39.70;;;19.83;;
20589;SDS011;10453;50.810;12.540;2022-12-19T15:16:26;25.55;;;13.13;;
20589;SDS011;10453;50.810;12.540;2022-12-19T15:20:46;32.70;;;16.08;;
20589;SDS011;10453;50.810;12.540;2022-12-19T15:25:04;28.80;;;15.05;;
20589;SDS011;10453;50.810;12.540;2022-12-19T15:29:21;30.37;;;15.97;;
20589;SDS011;10453;50.810;12.540;2022-12-19T15:33:38;42.08;;;16.70;;
20589;SDS011;10453;50.810;12.540;2022-12-19T15:38:15;28.38;;;14.70;;
20589;SDS011;10453;50.810;12.540;2022-12-19T15:42:33;32.35;;;14.95;;
20589;SDS011;10453;50.810;12.540;2022-12-19T15:46:50;28.75;;;14.82;;
20589;SDS011;10453;50.810;12.540;2022-12-19T15:51:10;32.15;;;15.82;;
20589;SDS011;10453;50.810;12.540;2022-12-19T15:55:28;29.85;;;16.35;;
20589;SDS011;10453;50.810;12.540;2022-12-19T15:59:46;22.85;;;13.52;;
20589;SDS011;10453;50.810;12.540;2022-12-19T16:04:04;28.27;;;14.32;;
20589;SDS011;10453;50.810;12.540;2022-12-19T16:08:28;25.42;;;14.80;;
20589;SDS011;10453;50.810;12.540;2022-12-19T16:12:48;63.72;;;31.20;;
20589;SDS011;10453;50.810;12.540;2022-12-19T16:17:12;48.60;;;22.92;;
20589;SDS011;10453;50.810;12.540;2022-12-19T16:21:34;40.38;;;22.23;;
20589;SDS011;10453;50.810;12.540;2022-12-19T16:25:51;27.02;;;15.85;;
20589;SDS011;10453;50.810;12.540;2022-12-19T16:34:36;26.20;;;12.23;;
20589;SDS011;10453;50.810;12.540;2022-12-19T16:38:54;26.70;;;15.13;;
20589;SDS011;10453;50.810;12.540;2022-12-19T16:43:12;19.25;;;12.48;;
20589;SDS011;10453;50.810;12.540;2022-12-19T16:47:37;25.13;;;13.82;;
20589;SDS011;10453;50.810;12.540;2022-12-19T16:51:55;23.73;;;13.73;;
20589;SDS011;10453;50.810;12.540;2022-12-19T17:01:01;28.70;;;15.90;;
20589;SDS011;10453;50.810;12.540;2022-12-19T17:05:23;32.78;;;17.83;;
20589;SDS011;10453;50.810;12.540;2022-12-19T17:09:42;27.13;;;14.10;;
20589;SDS011;10453;50.810;12.540;2022-12-19T17:14:06;39.60;;;18.00;;
20589;SDS011;10453;50.810;12.540;2022-12-19T17:18:30;36.33;;;18.63;;
20589;SDS011;10453;50.810;12.540;2022-12-19T17:22:49;20.58;;;12.73;;
20589;SDS011;10453;50.810;12.540;2022-12-19T17:27:07;25.20;;;14.77;;
20589;SDS011;10453;50.810;12.540;2022-12-19T17:31:25;27.50;;;15.27;;
20589;SDS011;10453;50.810;12.540;2022-12-19T17:35:45;31.98;;;17.13;;
20589;SDS011;10453;50.810;12.540;2022-12-19T17:40:04;32.07;;;15.97;;
20589;SDS011;10453;50.810;12.540;2022-12-19T17:44:33;27.42;;;15.30;;
20589;SDS011;10453;50.810;12.540;2022-12-19T17:48:51;36.33;;;17.67;;
20589;SDS011;10453;50.810;12.540;2022-12-19T17:53:11;77.22;;;33.53;;
20589;SDS011;10453;50.810;12.540;2022-12-19T17:57:29;27.73;;;14.13;;
20589;SDS011;10453;50.810;12.540;2022-12-19T18:01:46;25.60;;;12.75;;
20589;SDS011;10453;50.810;12.540;2022-12-19T18:06:04;23.60;;;12.03;;
20589;SDS011;10453;50.810;12.540;2022-12-19T18:10:28;22.33;;;12.23;;
20589;SDS011;10453;50.810;12.540;2022-12-19T18:14:47;25.17;;;13.68;;
20589;SDS011;10453;50.810;12.540;2022-12-19T18:19:04;21.60;;;11.95;;
20589;SDS011;10453;50.810;12.540;2022-12-19T18:23:22;28.27;;;15.03;;
20589;SDS011;10453;50.810;12.540;2022-12-19T18:27:39;20.50;;;11.18;;
20589;SDS011;10453;50.810;12.540;2022-12-19T18:31:56;20.30;;;12.48;;
20589;SDS011;10453;50.810;12.540;2022-12-19T18:36:15;23.27;;;12.90;;
20589;SDS011;10453;50.810;12.540;2022-12-19T18:40:37;26.65;;;13.95;;
20589;SDS011;10453;50.810;12.540;2022-12-19T18:44:54;21.77;;;12.57;;
20589;SDS011;10453;50.810;12.540;2022-12-19T18:49:12;25.23;;;13.23;;
20589;SDS011;10453;50.810;12.540;2022-12-19T18:53:31;20.45;;;11.45;;
20589;SDS011;10453;50.810;12.540;2022-12-19T18:57:52;20.20;;;11.75;;
20589;SDS011;10453;50.810;12.540;2022-12-19T19:02:22;23.77;;;11.53;;
20589;SDS011;10453;50.810;12.540;2022-12-19T19:06:42;21.33;;;11.85;;
20589;SDS011;10453;50.810;12.540;2022-12-19T19:11:07;20.33;;;10.77;;
20589;SDS011;10453;50.810;12.540;2022-12-19T19:15:26;77.40;;;32.73;;
20589;SDS011;10453;50.810;12.540;2022-12-19T19:19:46;104.20;;;43.22;;
20589;SDS011;10453;50.810;12.540;2022-12-19T19:24:07;50.53;;;23.58;;
20589;SDS011;10453;50.810;12.540;2022-12-19T19:28:27;50.17;;;20.40;;
20589;SDS011;10453;50.810;12.540;2022-12-19T19:32:46;26.65;;;14.32;;
20589;SDS011;10453;50.810;12.540;2022-12-19T19:37:08;27.92;;;13.63;;
20589;SDS011;10453;50.810;12.540;2022-12-19T19:41:28;24.67;;;12.18;;
20589;SDS011;10453;50.810;12.540;2022-12-19T19:45:45;24.57;;;11.43;;
20589;SDS011;10453;50.810;12.540;2022-12-19T19:50:03;25.33;;;13.82;;
20589;SDS011;10453;50.810;12.540;2022-12-19T19:54:22;25.23;;;11.90;;
20589;SDS011;10453;50.810;12.540;2022-12-19T19:58:39;28.05;;;11.82;;
20589;SDS011;10453;50.810;12.540;2022-12-19T20:02:56;22.88;;;12.10;;
20589;SDS011;10453;50.810;12.540;2022-12-19T20:07:13;21.63;;;11.20;;
20589;SDS011;10453;50.810;12.540;2022-12-19T20:11:32;18.92;;;10.18;;
20589;SDS011;10453;50.810;12.540;2022-12-19T20:15:50;25.10;;;13.43;;
20589;SDS011;10453;50.810;12.540;2022-12-19T20:20:07;37.40;;;17.80;;
20589;SDS011;10453;50.810;12.540;2022-12-19T20:24:25;20.03;;;11.70;;
20589;SDS011;10453;50.810;12.540;2022-12-19T20:28:44;23.00;;;11.10;;
20589;SDS011;10453;50.810;12.540;2022-12-19T20:33:05;20.98;;;11.48;;
20589;SDS011;10453;50.810;12.540;2022-12-19T20:37:23;21.42;;;11.77;;
20589;SDS011;10453;50.810;12.540;2022-12-19T20:41:40;18.97;;;10.73;;
20589;SDS011;10453;50.810;12.540;2022-12-19T20:46:16;19.85;;;10.43;;
20589;SDS011;10453;50.810;12.540;2022-12-19T20:50:37;20.20;;;11.45;;
20589;SDS011;10453;50.810;12.540;2022-12-19T20:54:59;20.85;;;11.77;;
20589;SDS011;10453;50.810;12.540;2022-12-19T20:59:16;18.77;;;10.60;;
20589;SDS011;10453;50.810;12.540;2022-12-19T21:03:34;15.68;;;9.45;;
20589;SDS011;10453;50.810;12.540;2022-12-19T21:07:52;18.23;;;9.40;;
20589;SDS011;10453;50.810;12.540;2022-12-19T21:12:09;17.38;;;9.95;;
20589;SDS011;10453;50.810;12.540;2022-12-19T21:16:27;17.63;;;9.88;;
20589;SDS011;10453;50.810;12.540;2022-12-19T21:20:44;15.20;;;8.68;;
20589;SDS011;10453;50.810;12.540;2022-12-19T21:25:02;16.80;;;9.73;;
20589;SDS011;10453;50.810;12.540;2022-12-19T21:29:20;16.38;;;8.75;;
20589;SDS011;10453;50.810;12.540;2022-12-19T21:33:37;18.95;;;9.55;;
20589;SDS011;10453;50.810;12.540;2022-12-19T21:37:55;17.75;;;9.55;;
20589;SDS011;10453;50.810;12.540;2022-12-19T21:42:12;14.65;;;8.82;;
20589;SDS011;10453;50.810;12.540;2022-12-19T21:46:30;14.77;;;8.82;;
20589;SDS011;10453;50.810;12.540;2022-12-19T21:50:54;14.93;;;9.27;;
20589;SDS011;10453;50.810;12.540;2022-12-19T21:55:12;15.57;;;8.45;;
20589;SDS011;10453;50.810;12.540;2022-12-19T21:59:29;15.18;;;9.32;;
20589;SDS011;10453;50.810;12.540;2022-12-19T22:03:46;15.43;;;9.77;;
20589;SDS011;10453;50.810;12.540;2022-12-19T22:08:03;15.95;;;9.65;;
20589;SDS011;10453;50.810;12.540;2022-12-19T22:12:21;16.55;;;9.65;;
20589;SDS011;10453;50.810;12.540;2022-12-19T22:16:38;15.77;;;9.38;;
20589;SDS011;10453;50.810;12.540;2022-12-19T22:20:56;18.77;;;10.15;;
20589;SDS011;10453;50.810;12.540;2022-12-19T22:25:15;20.40;;;9.98;;
20589;SDS011;10453;50.810;12.540;2022-12-19T22:29:33;21.30;;;13.17;;
20589;SDS011;10453;50.810;12.540;2022-12-19T22:33:53;14.85;;;9.77;;
20589;SDS011;10453;50.810;12.540;2022-12-19T22:38:11;19.50;;;10.70;;
20589;SDS011;10453;50.810;12.540;2022-12-19T22:42:29;15.48;;;9.52;;
20589;SDS011;10453;50.810;12.540;2022-12-19T22:46:46;16.60;;;9.90;;
20589;SDS011;10453;50.810;12.540;2022-12-19T22:51:04;18.05;;;9.95;;
20589;SDS011;10453;50.810;12.540;2022-12-19T22:55:21;18.90;;;10.10;;
20589;SDS011;10453;50.810;12.540;2022-12-19T22:59:38;20.25;;;10.38;;
20589;SDS011;10453;50.810;12.540;2022-12-19T23:03:56;18.50;;;9.70;;
20589;SDS011;10453;50.810;12.540;2022-12-19T23:08:15;16.15;;;9.25;;
20589;SDS011;10453;50.810;12.540;2022-12-19T23:12:32;17.60;;;9.98;;
20589;SDS011;10453;50.810;12.540;2022-12-19T23:16:49;17.55;;;9.80;;
20589;SDS011;10453;50.810;12.540;2022-12-19T23:21:19;18.15;;;10.32;;
20589;SDS011;10453;50.810;12.540;2022-12-19T23:25:38;21.02;;;11.27;;
20589;SDS011;10453;50.810;12.540;2022-12-19T23:34:14;19.63;;;10.98;;
20589;SDS011;10453;50.810;12.540;2022-12-19T23:42:49;23.08;;;10.43;;
20589;SDS011;10453;50.810;12.540;2022-12-19T23:47:06;21.15;;;10.95;;
20589;SDS011;10453;50.810;12.540;2022-12-19T23:51:24;20.40;;;11.50;;
20589;SDS011;10453;50.810;12.540;2022-12-19T23:55:42;22.38;;;10.40;;
20589;SDS011;10453;50.810;12.540;2022-12-19T23:59:59;21.25;;;10.05;;
